sensor_id;sensor_type;location;lat;lon;timestamp;temperature;humidity
56428;DHT22;42331;53.578;9.760;2023-05-10T00:01:06;14.90;99.90
56428;DHT22;42331;53.578;9.760;2023-05-10T00:03:38;14.80;99.90
56428;DHT22;42331;53.578;9.760;2023-05-10T00:06:08;14.80;99.90
56428;DHT22;42331;53.578;9.760;2023-05-10T00:08:39;14.80;99.90
56428;DHT22;42331;53.578;9.760;2023-05-10T00:11:10;14.80;99.90
56428;DHT22;42331;53.578;9.760;2023-05-10T00:13:40;14.80;99.90
56428;DHT22;42331;53.578;9.760;2023-05-10T00:16:11;14.70;99.90
56428;DHT22;42331;53.578;9.760;2023-05-10T00:18:43;14.60;99.90
56428;DHT22;42331;53.578;9.760;2023-05-10T00:21:14;14.60;99.90
56428;DHT22;42331;53.578;9.760;2023-05-10T00:23:45;14.50;99.90
56428;DHT22;42331;53.578;9.760;2023-05-10T00:26:15;14.40;99.90
56428;DHT22;42331;53.578;9.760;2023-05-10T00:28:47;14.40;99.90
56428;DHT22;42331;53.578;9.760;2023-05-10T00:31:18;14.30;99.90
56428;DHT22;42331;53.578;9.760;2023-05-10T00:33:48;14.20;99.90
56428;DHT22;42331;53.578;9.760;2023-05-10T00:36:19;14.20;99.90
56428;DHT22;42331;53.578;9.760;2023-05-10T00:38:51;14.20;99.90
56428;DHT22;42331;53.578;9.760;2023-05-10T00:41:21;14.10;99.90
56428;DHT22;42331;53.578;9.760;2023-05-10T00:43:52;14.10;99.90
56428;DHT22;42331;53.578;9.760;2023-05-10T00:46:23;14.10;99.90
56428;DHT22;42331;53.578;9.760;2023-05-10T00:48:54;14.00;99.90
56428;DHT22;42331;53.578;9.760;2023-05-10T00:51:25;14.00;99.90
56428;DHT22;42331;53.578;9.760;2023-05-10T00:53:56;14.00;99.90
56428;DHT22;42331;53.578;9.760;2023-05-10T00:56:27;13.90;99.90
56428;DHT22;42331;53.578;9.760;2023-05-10T00:59:00;13.90;99.90
56428;DHT22;42331;53.578;9.760;2023-05-10T01:01:30;13.90;99.90
56428;DHT22;42331;53.578;9.760;2023-05-10T01:04:02;13.90;99.90
56428;DHT22;42331;53.578;9.760;2023-05-10T01:06:33;13.80;99.90
56428;DHT22;42331;53.578;9.760;2023-05-10T01:09:04;13.80;99.90
56428;DHT22;42331;53.578;9.760;2023-05-10T01:11:35;13.80;99.90
56428;DHT22;42331;53.578;9.760;2023-05-10T01:14:07;13.80;99.90
56428;DHT22;42331;53.578;9.760;2023-05-10T01:16:39;13.80;99.90
56428;DHT22;42331;53.578;9.760;2023-05-10T01:19:22;13.80;99.90
56428;DHT22;42331;53.578;9.760;2023-05-10T01:22:23;13.70;99.90
56428;DHT22;42331;53.578;9.760;2023-05-10T01:25:35;13.70;99.90
56428;DHT22;42331;53.578;9.760;2023-05-10T01:34:27;13.60;99.90
56428;DHT22;42331;53.578;9.760;2023-05-10T01:37:10;13.60;99.90
56428;DHT22;42331;53.578;9.760;2023-05-10T01:39:47;13.60;99.90
56428;DHT22;42331;53.578;9.760;2023-05-10T01:42:26;13.60;99.90
56428;DHT22;42331;53.578;9.760;2023-05-10T01:45:07;13.60;99.90
56428;DHT22;42331;53.578;9.760;2023-05-10T01:47:47;13.60;99.90
56428;DHT22;42331;53.578;9.760;2023-05-10T01:50:24;13.60;99.90
56428;DHT22;42331;53.578;9.760;2023-05-10T01:53:00;13.50;99.90
56428;DHT22;42331;53.578;9.760;2023-05-10T01:56:07;13.50;99.90
56428;DHT22;42331;53.578;9.760;2023-05-10T01:58:32;13.50;99.90
56428;DHT22;42331;53.578;9.760;2023-05-10T02:01:05;13.50;99.90
56428;DHT22;42331;53.578;9.760;2023-05-10T02:03:38;13.50;99.90
56428;DHT22;42331;53.578;9.760;2023-05-10T02:06:10;13.40;99.90
56428;DHT22;42331;53.578;9.760;2023-05-10T02:08:43;13.40;99.90
56428;DHT22;42331;53.578;9.760;2023-05-10T02:11:17;13.40;99.90
56428;DHT22;42331;53.578;9.760;2023-05-10T02:13:50;13.30;99.90
56428;DHT22;42331;53.578;9.760;2023-05-10T02:16:24;13.30;99.90
56428;DHT22;42331;53.578;9.760;2023-05-10T02:18:57;13.30;99.90
56428;DHT22;42331;53.578;9.760;2023-05-10T02:21:30;13.30;99.90
56428;DHT22;42331;53.578;9.760;2023-05-10T02:24:03;13.30;99.90
56428;DHT22;42331;53.578;9.760;2023-05-10T02:26:36;13.20;99.90
56428;DHT22;42331;53.578;9.760;2023-05-10T02:29:09;13.20;99.90
56428;DHT22;42331;53.578;9.760;2023-05-10T02:31:40;13.20;99.90
56428;DHT22;42331;53.578;9.760;2023-05-10T02:34:14;13.20;99.90
56428;DHT22;42331;53.578;9.760;2023-05-10T02:36:45;13.10;99.90
56428;DHT22;42331;53.578;9.760;2023-05-10T02:39:18;13.10;99.90
56428;DHT22;42331;53.578;9.760;2023-05-10T02:41:50;13.10;99.90
56428;DHT22;42331;53.578;9.760;2023-05-10T02:44:23;13.10;99.90
56428;DHT22;42331;53.578;9.760;2023-05-10T02:46:54;13.10;99.90
56428;DHT22;42331;53.578;9.760;2023-05-10T02:49:26;13.10;99.90
56428;DHT22;42331;53.578;9.760;2023-05-10T02:52:00;13.10;99.90
56428;DHT22;42331;53.578;9.760;2023-05-10T02:54:41;13.10;99.90
56428;DHT22;42331;53.578;9.760;2023-05-10T02:57:16;13.10;99.90
56428;DHT22;42331;53.578;9.760;2023-05-10T02:59:49;13.00;99.90
56428;DHT22;42331;53.578;9.760;2023-05-10T03:02:20;13.10;99.90
56428;DHT22;42331;53.578;9.760;2023-05-10T03:04:51;13.00;99.90
56428;DHT22;42331;53.578;9.760;2023-05-10T03:07:22;13.00;99.90
56428;DHT22;42331;53.578;9.760;2023-05-10T03:09:53;13.00;99.90
56428;DHT22;42331;53.578;9.760;2023-05-10T03:15:13;13.00;99.90
56428;DHT22;42331;53.578;9.760;2023-05-10T03:17:56;13.00;99.90
56428;DHT22;42331;53.578;9.760;2023-05-10T03:20:42;12.90;99.90
56428;DHT22;42331;53.578;9.760;2023-05-10T03:23:22;12.90;99.90
56428;DHT22;42331;53.578;9.760;2023-05-10T03:25:55;13.00;99.90
56428;DHT22;42331;53.578;9.760;2023-05-10T03:28:26;12.90;99.90
56428;DHT22;42331;53.578;9.760;2023-05-10T03:30:59;12.90;99.90
56428;DHT22;42331;53.578;9.760;2023-05-10T03:33:30;12.90;99.90
56428;DHT22;42331;53.578;9.760;2023-05-10T03:36:02;12.90;99.90
56428;DHT22;42331;53.578;9.760;2023-05-10T03:38:33;12.90;99.90
56428;DHT22;42331;53.578;9.760;2023-05-10T03:41:03;12.80;99.90
56428;DHT22;42331;53.578;9.760;2023-05-10T03:43:34;12.80;99.90
56428;DHT22;42331;53.578;9.760;2023-05-10T03:46:05;12.80;99.90
56428;DHT22;42331;53.578;9.760;2023-05-10T03:48:36;12.80;99.90
56428;DHT22;42331;53.578;9.760;2023-05-10T03:51:07;12.80;99.90
56428;DHT22;42331;53.578;9.760;2023-05-10T03:53:37;12.80;99.90
56428;DHT22;42331;53.578;9.760;2023-05-10T03:56:08;12.70;99.90
56428;DHT22;42331;53.578;9.760;2023-05-10T03:58:39;12.80;99.90
56428;DHT22;42331;53.578;9.760;2023-05-10T04:01:09;12.80;99.90
56428;DHT22;42331;53.578;9.760;2023-05-10T04:03:40;12.80;99.90
56428;DHT22;42331;53.578;9.760;2023-05-10T04:06:11;12.70;99.90
56428;DHT22;42331;53.578;9.760;2023-05-10T04:08:42;12.80;99.90
56428;DHT22;42331;53.578;9.760;2023-05-10T04:11:13;12.80;99.90
56428;DHT22;42331;53.578;9.760;2023-05-10T04:13:44;12.80;99.90
56428;DHT22;42331;53.578;9.760;2023-05-10T04:16:15;12.80;99.90
56428;DHT22;42331;53.578;9.760;2023-05-10T04:18:45;12.80;99.90
56428;DHT22;42331;53.578;9.760;2023-05-10T04:21:16;12.80;99.90
56428;DHT22;42331;53.578;9.760;2023-05-10T04:23:47;12.70;99.90
56428;DHT22;42331;53.578;9.760;2023-05-10T04:26:17;12.80;99.90
56428;DHT22;42331;53.578;9.760;2023-05-10T04:28:48;12.80;99.90
56428;DHT22;42331;53.578;9.760;2023-05-10T04:31:19;12.80;99.90
56428;DHT22;42331;53.578;9.760;2023-05-10T04:33:49;12.80;99.90
56428;DHT22;42331;53.578;9.760;2023-05-10T04:36:20;12.80;99.90
56428;DHT22;42331;53.578;9.760;2023-05-10T04:38:51;12.80;99.90
56428;DHT22;42331;53.578;9.760;2023-05-10T04:41:22;12.80;99.90
56428;DHT22;42331;53.578;9.760;2023-05-10T04:43:52;12.80;99.90
56428;DHT22;42331;53.578;9.760;2023-05-10T04:46:23;12.80;99.90
56428;DHT22;42331;53.578;9.760;2023-05-10T04:48:54;12.80;99.90
56428;DHT22;42331;53.578;9.760;2023-05-10T04:51:24;12.90;99.90
56428;DHT22;42331;53.578;9.760;2023-05-10T04:53:55;12.90;99.90
56428;DHT22;42331;53.578;9.760;2023-05-10T04:56:26;12.90;99.90
56428;DHT22;42331;53.578;9.760;2023-05-10T04:58:56;12.90;99.90
56428;DHT22;42331;53.578;9.760;2023-05-10T05:01:28;12.90;99.90
56428;DHT22;42331;53.578;9.760;2023-05-10T05:03:58;12.90;99.90
56428;DHT22;42331;53.578;9.760;2023-05-10T05:06:29;12.90;99.90
56428;DHT22;42331;53.578;9.760;2023-05-10T05:09:00;13.00;99.90
56428;DHT22;42331;53.578;9.760;2023-05-10T05:11:31;13.00;99.90
56428;DHT22;42331;53.578;9.760;2023-05-10T05:14:01;13.10;99.90
56428;DHT22;42331;53.578;9.760;2023-05-10T05:16:32;13.10;99.90
56428;DHT22;42331;53.578;9.760;2023-05-10T05:19:05;13.10;99.90
56428;DHT22;42331;53.578;9.760;2023-05-10T05:21:36;13.20;99.90
56428;DHT22;42331;53.578;9.760;2023-05-10T05:24:07;13.20;99.90
56428;DHT22;42331;53.578;9.760;2023-05-10T05:26:43;13.30;99.90
56428;DHT22;42331;53.578;9.760;2023-05-10T05:29:14;13.30;99.90
56428;DHT22;42331;53.578;9.760;2023-05-10T05:31:45;13.30;99.90
56428;DHT22;42331;53.578;9.760;2023-05-10T05:34:15;13.30;99.90
56428;DHT22;42331;53.578;9.760;2023-05-10T05:36:46;13.30;99.90
56428;DHT22;42331;53.578;9.760;2023-05-10T05:39:17;13.40;99.90
56428;DHT22;42331;53.578;9.760;2023-05-10T05:41:47;13.40;99.90
56428;DHT22;42331;53.578;9.760;2023-05-10T05:44:18;13.50;99.90
56428;DHT22;42331;53.578;9.760;2023-05-10T05:46:49;13.40;99.90
56428;DHT22;42331;53.578;9.760;2023-05-10T05:49:19;13.40;99.90
56428;DHT22;42331;53.578;9.760;2023-05-10T05:51:50;13.50;99.90
56428;DHT22;42331;53.578;9.760;2023-05-10T05:54:21;13.40;99.90
56428;DHT22;42331;53.578;9.760;2023-05-10T05:56:54;13.50;99.90
56428;DHT22;42331;53.578;9.760;2023-05-10T05:59:26;13.60;99.90
56428;DHT22;42331;53.578;9.760;2023-05-10T06:01:56;13.70;99.90
56428;DHT22;42331;53.578;9.760;2023-05-10T06:04:27;13.70;99.90
56428;DHT22;42331;53.578;9.760;2023-05-10T06:06:58;13.60;99.90
56428;DHT22;42331;53.578;9.760;2023-05-10T06:09:28;13.70;99.90
56428;DHT22;42331;53.578;9.760;2023-05-10T06:11:59;13.60;99.90
56428;DHT22;42331;53.578;9.760;2023-05-10T06:14:30;13.70;99.90
56428;DHT22;42331;53.578;9.760;2023-05-10T06:17:00;13.70;99.90
56428;DHT22;42331;53.578;9.760;2023-05-10T06:19:34;13.80;99.90
56428;DHT22;42331;53.578;9.760;2023-05-10T06:22:05;13.90;99.90
56428;DHT22;42331;53.578;9.760;2023-05-10T06:24:35;13.90;99.90
56428;DHT22;42331;53.578;9.760;2023-05-10T06:27:06;14.00;99.90
56428;DHT22;42331;53.578;9.760;2023-05-10T06:29:37;14.20;99.90
56428;DHT22;42331;53.578;9.760;2023-05-10T06:32:07;14.40;99.90
56428;DHT22;42331;53.578;9.760;2023-05-10T06:34:38;14.40;99.90
56428;DHT22;42331;53.578;9.760;2023-05-10T06:37:09;14.40;99.90
56428;DHT22;42331;53.578;9.760;2023-05-10T06:39:39;14.30;99.90
56428;DHT22;42331;53.578;9.760;2023-05-10T06:42:10;14.20;99.90
56428;DHT22;42331;53.578;9.760;2023-05-10T06:44:41;14.20;99.90
56428;DHT22;42331;53.578;9.760;2023-05-10T06:47:12;14.20;99.90
56428;DHT22;42331;53.578;9.760;2023-05-10T06:49:42;14.40;99.90
56428;DHT22;42331;53.578;9.760;2023-05-10T06:52:13;14.60;99.90
56428;DHT22;42331;53.578;9.760;2023-05-10T06:54:44;14.50;99.90
56428;DHT22;42331;53.578;9.760;2023-05-10T06:57:15;14.60;99.90
56428;DHT22;42331;53.578;9.760;2023-05-10T06:59:45;14.60;99.90
56428;DHT22;42331;53.578;9.760;2023-05-10T07:02:16;14.70;99.90
56428;DHT22;42331;53.578;9.760;2023-05-10T07:04:47;14.90;99.90
56428;DHT22;42331;53.578;9.760;2023-05-10T07:07:18;15.00;99.90
56428;DHT22;42331;53.578;9.760;2023-05-10T07:09:49;14.80;99.90
56428;DHT22;42331;53.578;9.760;2023-05-10T07:12:20;14.80;99.90
56428;DHT22;42331;53.578;9.760;2023-05-10T07:14:51;14.80;99.90
56428;DHT22;42331;53.578;9.760;2023-05-10T07:17:21;14.80;99.90
56428;DHT22;42331;53.578;9.760;2023-05-10T07:19:52;14.90;99.90
56428;DHT22;42331;53.578;9.760;2023-05-10T07:22:23;14.90;99.90
56428;DHT22;42331;53.578;9.760;2023-05-10T07:24:54;14.90;99.90
56428;DHT22;42331;53.578;9.760;2023-05-10T07:27:25;15.10;99.90
56428;DHT22;42331;53.578;9.760;2023-05-10T07:29:56;15.20;99.90
56428;DHT22;42331;53.578;9.760;2023-05-10T07:32:26;15.40;99.90
56428;DHT22;42331;53.578;9.760;2023-05-10T07:34:57;15.50;99.90
56428;DHT22;42331;53.578;9.760;2023-05-10T07:37:28;15.50;99.90
56428;DHT22;42331;53.578;9.760;2023-05-10T07:39:58;15.60;99.90
56428;DHT22;42331;53.578;9.760;2023-05-10T07:42:29;15.70;99.90
56428;DHT22;42331;53.578;9.760;2023-05-10T07:45:00;15.70;99.90
56428;DHT22;42331;53.578;9.760;2023-05-10T07:47:30;15.60;99.90
56428;DHT22;42331;53.578;9.760;2023-05-10T07:50:01;15.60;99.90
56428;DHT22;42331;53.578;9.760;2023-05-10T07:52:32;15.50;99.90
56428;DHT22;42331;53.578;9.760;2023-05-10T07:55:03;15.30;99.90
56428;DHT22;42331;53.578;9.760;2023-05-10T07:57:34;15.20;99.90
56428;DHT22;42331;53.578;9.760;2023-05-10T08:00:06;15.20;99.90
56428;DHT22;42331;53.578;9.760;2023-05-10T08:02:36;15.20;99.90
56428;DHT22;42331;53.578;9.760;2023-05-10T08:05:07;15.10;99.90
56428;DHT22;42331;53.578;9.760;2023-05-10T08:07:38;15.00;99.90
56428;DHT22;42331;53.578;9.760;2023-05-10T08:10:09;15.00;99.90
56428;DHT22;42331;53.578;9.760;2023-05-10T08:12:41;14.90;99.90
56428;DHT22;42331;53.578;9.760;2023-05-10T08:15:12;15.00;99.90
56428;DHT22;42331;53.578;9.760;2023-05-10T08:17:42;15.00;99.90
56428;DHT22;42331;53.578;9.760;2023-05-10T08:20:13;15.00;99.90
56428;DHT22;42331;53.578;9.760;2023-05-10T08:22:47;15.10;99.90
56428;DHT22;42331;53.578;9.760;2023-05-10T08:25:20;15.10;99.90
56428;DHT22;42331;53.578;9.760;2023-05-10T08:27:51;14.90;99.90
56428;DHT22;42331;53.578;9.760;2023-05-10T08:30:22;14.90;99.90
56428;DHT22;42331;53.578;9.760;2023-05-10T08:32:53;14.80;99.90
56428;DHT22;42331;53.578;9.760;2023-05-10T08:35:23;14.70;99.90
56428;DHT22;42331;53.578;9.760;2023-05-10T08:37:54;14.60;99.90
56428;DHT22;42331;53.578;9.760;2023-05-10T08:40:26;14.60;99.90
56428;DHT22;42331;53.578;9.760;2023-05-10T08:43:08;14.70;99.90
56428;DHT22;42331;53.578;9.760;2023-05-10T08:45:39;14.70;99.90
56428;DHT22;42331;53.578;9.760;2023-05-10T08:48:11;14.60;99.90
56428;DHT22;42331;53.578;9.760;2023-05-10T08:50:42;14.60;99.90
56428;DHT22;42331;53.578;9.760;2023-05-10T08:53:16;14.70;99.90
56428;DHT22;42331;53.578;9.760;2023-05-10T08:55:47;14.70;99.90
56428;DHT22;42331;53.578;9.760;2023-05-10T08:58:19;14.70;99.90
56428;DHT22;42331;53.578;9.760;2023-05-10T09:00:50;14.80;99.90
56428;DHT22;42331;53.578;9.760;2023-05-10T09:03:23;14.60;99.90
56428;DHT22;42331;53.578;9.760;2023-05-10T09:05:54;14.50;99.90
56428;DHT22;42331;53.578;9.760;2023-05-10T09:08:26;14.50;99.90
56428;DHT22;42331;53.578;9.760;2023-05-10T09:10:57;14.60;99.90
56428;DHT22;42331;53.578;9.760;2023-05-10T09:13:28;14.70;99.90
56428;DHT22;42331;53.578;9.760;2023-05-10T09:16:00;14.60;99.90
56428;DHT22;42331;53.578;9.760;2023-05-10T09:18:31;14.50;99.90
56428;DHT22;42331;53.578;9.760;2023-05-10T09:21:02;14.40;99.90
56428;DHT22;42331;53.578;9.760;2023-05-10T09:23:32;14.50;99.90
56428;DHT22;42331;53.578;9.760;2023-05-10T09:26:07;14.50;99.90
56428;DHT22;42331;53.578;9.760;2023-05-10T09:28:55;14.40;99.90
56428;DHT22;42331;53.578;9.760;2023-05-10T09:31:47;14.50;99.90
56428;DHT22;42331;53.578;9.760;2023-05-10T09:34:19;14.40;99.90
56428;DHT22;42331;53.578;9.760;2023-05-10T09:36:52;14.50;99.90
56428;DHT22;42331;53.578;9.760;2023-05-10T09:39:32;14.40;99.90
56428;DHT22;42331;53.578;9.760;2023-05-10T09:42:05;14.30;99.90
56428;DHT22;42331;53.578;9.760;2023-05-10T09:44:36;14.10;99.90
56428;DHT22;42331;53.578;9.760;2023-05-10T09:47:08;13.80;99.90
56428;DHT22;42331;53.578;9.760;2023-05-10T09:49:41;13.60;99.90
56428;DHT22;42331;53.578;9.760;2023-05-10T09:52:12;13.50;99.90
56428;DHT22;42331;53.578;9.760;2023-05-10T09:54:52;13.50;99.90
56428;DHT22;42331;53.578;9.760;2023-05-10T09:57:26;13.50;99.90
56428;DHT22;42331;53.578;9.760;2023-05-10T09:59:57;13.60;99.90
56428;DHT22;42331;53.578;9.760;2023-05-10T10:02:31;13.60;99.90
56428;DHT22;42331;53.578;9.760;2023-05-10T10:05:02;13.40;99.90
56428;DHT22;42331;53.578;9.760;2023-05-10T10:07:33;13.40;99.90
56428;DHT22;42331;53.578;9.760;2023-05-10T10:10:05;13.50;99.90
56428;DHT22;42331;53.578;9.760;2023-05-10T10:12:41;13.30;99.90
56428;DHT22;42331;53.578;9.760;2023-05-10T10:15:12;13.30;99.90
56428;DHT22;42331;53.578;9.760;2023-05-10T10:17:45;13.30;99.90
56428;DHT22;42331;53.578;9.760;2023-05-10T10:20:18;13.20;99.90
56428;DHT22;42331;53.578;9.760;2023-05-10T10:22:49;13.10;99.90
56428;DHT22;42331;53.578;9.760;2023-05-10T10:25:21;13.00;99.90
56428;DHT22;42331;53.578;9.760;2023-05-10T10:30:43;12.90;99.90
56428;DHT22;42331;53.578;9.760;2023-05-10T10:35:53;13.00;99.90
56428;DHT22;42331;53.578;9.760;2023-05-10T10:38:24;13.00;99.90
56428;DHT22;42331;53.578;9.760;2023-05-10T10:41:06;13.10;99.90
56428;DHT22;42331;53.578;9.760;2023-05-10T10:43:38;13.20;99.90
56428;DHT22;42331;53.578;9.760;2023-05-10T10:46:13;13.10;99.90
56428;DHT22;42331;53.578;9.760;2023-05-10T10:48:49;13.00;99.90
56428;DHT22;42331;53.578;9.760;2023-05-10T10:51:22;13.10;99.90
56428;DHT22;42331;53.578;9.760;2023-05-10T10:53:54;12.90;99.90
56428;DHT22;42331;53.578;9.760;2023-05-10T10:56:24;12.80;99.90
56428;DHT22;42331;53.578;9.760;2023-05-10T10:58:59;12.80;99.90
56428;DHT22;42331;53.578;9.760;2023-05-10T11:01:34;12.80;99.90
56428;DHT22;42331;53.578;9.760;2023-05-10T11:06:38;12.90;99.90
56428;DHT22;42331;53.578;9.760;2023-05-10T11:09:11;12.90;99.90
56428;DHT22;42331;53.578;9.760;2023-05-10T11:11:52;13.00;99.90
56428;DHT22;42331;53.578;9.760;2023-05-10T11:14:25;13.10;99.90
56428;DHT22;42331;53.578;9.760;2023-05-10T11:16:56;13.10;99.90
56428;DHT22;42331;53.578;9.760;2023-05-10T11:19:28;13.00;99.90
56428;DHT22;42331;53.578;9.760;2023-05-10T11:24:35;12.80;99.90
56428;DHT22;42331;53.578;9.760;2023-05-10T11:27:06;12.70;99.90
56428;DHT22;42331;53.578;9.760;2023-05-10T11:29:37;12.70;99.90
56428;DHT22;42331;53.578;9.760;2023-05-10T11:32:08;12.80;99.90
56428;DHT22;42331;53.578;9.760;2023-05-10T11:34:39;12.70;99.90
56428;DHT22;42331;53.578;9.760;2023-05-10T11:37:09;12.60;99.90
56428;DHT22;42331;53.578;9.760;2023-05-10T11:39:45;12.60;99.90
56428;DHT22;42331;53.578;9.760;2023-05-10T11:42:17;12.70;99.90
56428;DHT22;42331;53.578;9.760;2023-05-10T11:44:48;12.80;99.90
56428;DHT22;42331;53.578;9.760;2023-05-10T11:47:19;12.90;99.90
56428;DHT22;42331;53.578;9.760;2023-05-10T11:49:51;13.00;99.90
56428;DHT22;42331;53.578;9.760;2023-05-10T11:52:22;13.00;99.90
56428;DHT22;42331;53.578;9.760;2023-05-10T11:54:54;13.10;99.90
56428;DHT22;42331;53.578;9.760;2023-05-10T11:57:28;13.20;99.90
56428;DHT22;42331;53.578;9.760;2023-05-10T11:59:59;13.40;99.90
56428;DHT22;42331;53.578;9.760;2023-05-10T12:02:30;13.40;99.90
56428;DHT22;42331;53.578;9.760;2023-05-10T12:05:02;13.40;99.90
56428;DHT22;42331;53.578;9.760;2023-05-10T12:07:34;13.30;99.90
56428;DHT22;42331;53.578;9.760;2023-05-10T12:10:12;13.40;99.90
56428;DHT22;42331;53.578;9.760;2023-05-10T12:12:52;13.50;99.90
56428;DHT22;42331;53.578;9.760;2023-05-10T12:15:24;13.50;99.90
56428;DHT22;42331;53.578;9.760;2023-05-10T12:18:09;13.60;99.90
56428;DHT22;42331;53.578;9.760;2023-05-10T12:20:41;13.60;99.90
56428;DHT22;42331;53.578;9.760;2023-05-10T12:23:24;13.70;99.90
56428;DHT22;42331;53.578;9.760;2023-05-10T12:26:20;13.60;99.90
56428;DHT22;42331;53.578;9.760;2023-05-10T12:29:01;13.70;99.90
56428;DHT22;42331;53.578;9.760;2023-05-10T12:31:59;13.60;99.90
56428;DHT22;42331;53.578;9.760;2023-05-10T12:34:34;13.70;99.90
56428;DHT22;42331;53.578;9.760;2023-05-10T12:37:07;13.80;99.90
56428;DHT22;42331;53.578;9.760;2023-05-10T12:39:42;13.90;99.90
56428;DHT22;42331;53.578;9.760;2023-05-10T12:42:13;13.90;99.90
56428;DHT22;42331;53.578;9.760;2023-05-10T12:44:44;13.80;99.90
56428;DHT22;42331;53.578;9.760;2023-05-10T12:47:15;13.70;99.90
56428;DHT22;42331;53.578;9.760;2023-05-10T12:49:46;13.70;99.90
56428;DHT22;42331;53.578;9.760;2023-05-10T12:52:16;13.80;99.90
56428;DHT22;42331;53.578;9.760;2023-05-10T12:54:47;13.90;99.90
56428;DHT22;42331;53.578;9.760;2023-05-10T12:57:18;14.00;99.90
56428;DHT22;42331;53.578;9.760;2023-05-10T12:59:49;14.00;99.90
56428;DHT22;42331;53.578;9.760;2023-05-10T13:02:19;14.40;99.90
56428;DHT22;42331;53.578;9.760;2023-05-10T13:04:51;14.60;99.90
56428;DHT22;42331;53.578;9.760;2023-05-10T13:07:22;14.60;99.90
56428;DHT22;42331;53.578;9.760;2023-05-10T13:09:53;14.60;99.90
56428;DHT22;42331;53.578;9.760;2023-05-10T13:12:23;14.70;99.90
56428;DHT22;42331;53.578;9.760;2023-05-10T13:14:54;14.70;99.90
56428;DHT22;42331;53.578;9.760;2023-05-10T13:17:25;14.70;99.90
56428;DHT22;42331;53.578;9.760;2023-05-10T13:19:56;14.70;99.90
56428;DHT22;42331;53.578;9.760;2023-05-10T13:22:27;14.80;99.90
56428;DHT22;42331;53.578;9.760;2023-05-10T13:24:57;14.90;99.90
56428;DHT22;42331;53.578;9.760;2023-05-10T13:27:28;14.80;99.90
56428;DHT22;42331;53.578;9.760;2023-05-10T13:29:59;14.80;99.90
56428;DHT22;42331;53.578;9.760;2023-05-10T13:32:30;14.70;99.90
56428;DHT22;42331;53.578;9.760;2023-05-10T13:35:01;14.70;99.90
56428;DHT22;42331;53.578;9.760;2023-05-10T13:37:33;14.80;99.90
56428;DHT22;42331;53.578;9.760;2023-05-10T13:40:07;14.90;99.90
56428;DHT22;42331;53.578;9.760;2023-05-10T13:42:38;14.90;99.90
56428;DHT22;42331;53.578;9.760;2023-05-10T13:45:10;15.00;99.90
56428;DHT22;42331;53.578;9.760;2023-05-10T13:47:42;15.00;99.90
56428;DHT22;42331;53.578;9.760;2023-05-10T13:50:13;14.90;99.90
56428;DHT22;42331;53.578;9.760;2023-05-10T13:52:44;14.90;99.90
56428;DHT22;42331;53.578;9.760;2023-05-10T13:55:15;14.90;99.90
56428;DHT22;42331;53.578;9.760;2023-05-10T13:57:46;14.90;99.90
56428;DHT22;42331;53.578;9.760;2023-05-10T14:00:17;15.10;99.90
56428;DHT22;42331;53.578;9.760;2023-05-10T14:02:47;15.20;99.90
56428;DHT22;42331;53.578;9.760;2023-05-10T14:05:18;15.40;99.90
56428;DHT22;42331;53.578;9.760;2023-05-10T14:07:50;15.40;99.90
56428;DHT22;42331;53.578;9.760;2023-05-10T14:10:21;15.50;99.90
56428;DHT22;42331;53.578;9.760;2023-05-10T14:12:51;15.50;99.90
56428;DHT22;42331;53.578;9.760;2023-05-10T14:15:22;15.70;99.90
56428;DHT22;42331;53.578;9.760;2023-05-10T14:17:53;15.80;99.90
56428;DHT22;42331;53.578;9.760;2023-05-10T14:20:24;15.60;99.90
56428;DHT22;42331;53.578;9.760;2023-05-10T14:22:54;15.70;99.90
56428;DHT22;42331;53.578;9.760;2023-05-10T14:25:25;15.70;99.90
56428;DHT22;42331;53.578;9.760;2023-05-10T14:27:56;15.80;99.90
56428;DHT22;42331;53.578;9.760;2023-05-10T14:30:27;15.80;99.90
56428;DHT22;42331;53.578;9.760;2023-05-10T14:32:57;15.80;99.90
56428;DHT22;42331;53.578;9.760;2023-05-10T14:35:29;16.00;99.90
56428;DHT22;42331;53.578;9.760;2023-05-10T14:38:02;16.00;99.90
56428;DHT22;42331;53.578;9.760;2023-05-10T14:40:34;16.10;99.90
56428;DHT22;42331;53.578;9.760;2023-05-10T14:43:04;16.10;99.90
56428;DHT22;42331;53.578;9.760;2023-05-10T14:45:35;16.20;99.90
56428;DHT22;42331;53.578;9.760;2023-05-10T14:48:06;16.20;99.90
56428;DHT22;42331;53.578;9.760;2023-05-10T14:50:41;16.10;99.90
56428;DHT22;42331;53.578;9.760;2023-05-10T14:53:12;16.10;99.90
56428;DHT22;42331;53.578;9.760;2023-05-10T14:55:42;16.10;99.90
56428;DHT22;42331;53.578;9.760;2023-05-10T14:58:13;16.10;99.90
56428;DHT22;42331;53.578;9.760;2023-05-10T15:00:44;16.00;99.90
56428;DHT22;42331;53.578;9.760;2023-05-10T15:03:15;16.00;99.90
56428;DHT22;42331;53.578;9.760;2023-05-10T15:05:46;16.00;99.90
56428;DHT22;42331;53.578;9.760;2023-05-10T15:08:17;16.00;99.90
56428;DHT22;42331;53.578;9.760;2023-05-10T15:10:48;16.10;99.90
56428;DHT22;42331;53.578;9.760;2023-05-10T15:13:19;16.10;99.90
56428;DHT22;42331;53.578;9.760;2023-05-10T15:15:49;16.20;99.90
56428;DHT22;42331;53.578;9.760;2023-05-10T15:18:20;16.10;99.90
56428;DHT22;42331;53.578;9.760;2023-05-10T15:20:51;16.10;99.90
56428;DHT22;42331;53.578;9.760;2023-05-10T15:23:21;16.10;99.90
56428;DHT22;42331;53.578;9.760;2023-05-10T15:25:52;16.10;99.90
56428;DHT22;42331;53.578;9.760;2023-05-10T15:28:25;16.00;99.90
56428;DHT22;42331;53.578;9.760;2023-05-10T15:30:56;16.00;99.90
56428;DHT22;42331;53.578;9.760;2023-05-10T15:33:27;15.90;99.90
56428;DHT22;42331;53.578;9.760;2023-05-10T15:35:58;15.90;99.90
56428;DHT22;42331;53.578;9.760;2023-05-10T15:38:28;15.80;99.90
56428;DHT22;42331;53.578;9.760;2023-05-10T15:40:59;15.60;99.90
56428;DHT22;42331;53.578;9.760;2023-05-10T15:43:30;15.30;99.90
56428;DHT22;42331;53.578;9.760;2023-05-10T15:46:00;15.10;99.90
56428;DHT22;42331;53.578;9.760;2023-05-10T15:48:32;15.00;99.90
56428;DHT22;42331;53.578;9.760;2023-05-10T15:51:02;14.90;99.90
56428;DHT22;42331;53.578;9.760;2023-05-10T15:53:33;15.00;99.90
56428;DHT22;42331;53.578;9.760;2023-05-10T15:56:04;15.00;99.90
56428;DHT22;42331;53.578;9.760;2023-05-10T15:58:36;14.90;99.90
56428;DHT22;42331;53.578;9.760;2023-05-10T16:01:07;14.90;99.90
56428;DHT22;42331;53.578;9.760;2023-05-10T16:03:39;14.90;99.90
56428;DHT22;42331;53.578;9.760;2023-05-10T16:06:10;14.90;99.90
56428;DHT22;42331;53.578;9.760;2023-05-10T16:08:41;14.90;99.90
56428;DHT22;42331;53.578;9.760;2023-05-10T16:11:12;14.90;99.90
56428;DHT22;42331;53.578;9.760;2023-05-10T16:13:43;14.90;99.90
56428;DHT22;42331;53.578;9.760;2023-05-10T16:16:13;15.00;99.90
56428;DHT22;42331;53.578;9.760;2023-05-10T16:18:44;15.00;99.90
56428;DHT22;42331;53.578;9.760;2023-05-10T16:21:15;15.10;99.90